Terminal Aerodrome Forecast
Issued by NWS Wilmington, NC

Home | Current Version | Previous Version | Text Only | Print | Product List | Glossary On
Versions: 1 2 3 4 5 6 7 8 9 10 11 12 13 14 15 16 17 18 19 20
000
FTUS42 KILM 271721
TAFILM
TAF
KILM 271721Z 2718/2818 04005KT P6SM SCT020 BKN035
      TEMPO 2718/2722 4SM -SHRA BKN025
     FM280800 02005KT 5SM BR SCT005 BKN020
     FM281300 03010KT P6SM SCT025 BKN035=

USA.gov is the U.S. government's official web portal to all federal, state and local government web resources and services.